Time;durP1;ratioP1;P1;durP2;ratioP2;P2;SDS_P1;SDS_P2;PMS_P1;PMS_P2;Temp;Humidity;BMP_temperature;BMP_pressure;BME280_temperature;BME280_humidity;BME280_pressure;Samples;Min_cycle;Max_cycle;Signal;HPM_P1;HPM_P2
2021/10/24 00:01:39;;;;;;;3.50;1.10;;;;;;;7.18;59.10;100130.79;1830334;75;21133;-59
2021/10/24 00:04:06;;;;;;;2.23;0.80;;;;;;;7.19;59.17;100135.23;1830259;76;21067;-59
2021/10/24 00:06:32;;;;;;;5.23;1.07;;;;;;;7.19;59.21;100128.53;1829948;76;21033;-59
2021/10/24 00:08:59;;;;;;;5.00;1.00;;;;;;;7.18;59.32;100122.77;1829302;76;21803;-59
2021/10/24 00:11:27;;;;;;;9.83;1.37;;;;;;;7.19;59.41;100124.52;1832912;76;21301;-58
2021/10/24 00:13:53;;;;;;;7.03;1.67;;;;;;;7.20;59.48;100124.94;1830231;76;20964;-59
2021/10/24 00:16:20;;;;;;;2.93;0.80;;;;;;;7.19;59.53;100128.08;1829302;75;21418;-58
2021/10/24 00:18:47;;;;;;;3.40;0.90;;;;;;;7.19;59.64;100132.09;1830882;76;21135;-58
2021/10/24 00:21:13;;;;;;;7.47;1.87;;;;;;;7.19;59.72;100132.09;1828849;76;21530;-60
2021/10/24 00:23:40;;;;;;;4.80;0.97;;;;;;;7.19;59.82;100130.75;1831709;76;21091;-59
2021/10/24 00:26:06;;;;;;;2.33;0.90;;;;;;;7.19;59.92;100132.55;1826819;76;23312;-59
2021/10/24 00:28:33;;;;;;;2.77;0.97;;;;;;;7.16;60.00;100125.94;1832738;76;20884;-59
2021/10/24 00:30:59;;;;;;;5.27;0.90;;;;;;;7.17;60.11;100131.71;1821862;76;21084;-59
2021/10/24 00:33:27;;;;;;;4.20;1.40;;;;;;;7.17;60.21;100126.36;1794184;78;21033;-59
2021/10/24 00:35:54;;;;;;;3.00;1.30;;;;;;;7.17;60.30;100133.92;1791840;78;21036;-59
2021/10/24 00:38:21;;;;;;;5.10;1.23;;;;;;;7.17;60.35;100132.59;1796092;78;23326;-58
2021/10/24 00:40:47;;;;;;;3.80;1.20;;;;;;;7.17;60.49;100131.25;1794301;78;20954;-59
2021/10/24 00:43:13;;;;;;;4.47;1.27;;;;;;;7.20;60.61;100128.95;1792898;77;21959;-58
2021/10/24 00:45:40;;;;;;;3.40;1.13;;;;;;;7.20;60.63;100135.65;1794284;78;21409;-57
2021/10/24 00:48:06;;;;;;;2.60;1.20;;;;;;;7.20;60.75;100133.86;1791423;78;21497;-58
2021/10/24 00:50:33;;;;;;;3.30;1.10;;;;;;;7.21;60.83;100142.30;1797636;77;21183;-57
2021/10/24 00:52:59;;;;;;;5.13;1.00;;;;;;;7.25;60.90;100143.08;1791101;78;21084;-57
2021/10/24 00:55:27;;;;;;;4.53;1.13;;;;;;;7.27;61.00;100139.91;1794861;78;21013;-58
2021/10/24 00:57:54;;;;;;;4.10;1.00;;;;;;;7.32;61.10;100139.76;1770061;78;21076;-57
2021/10/24 01:00:20;;;;;;;4.10;0.90;;;;;;;7.37;61.13;100146.75;1790815;78;21439;-57
2021/10/24 01:02:47;;;;;;;5.80;1.23;;;;;;;7.41;61.16;100136.81;1795175;78;22114;-58
2021/10/24 01:05:15;;;;;;;2.80;1.00;;;;;;;7.44;61.17;100149.67;1798134;78;20914;-58
2021/10/24 01:07:45;;;;;;;3.50;1.20;;;;;;;7.46;61.16;100141.13;1799587;78;20929;-59
2021/10/24 01:10:15;;;;;;;3.93;0.90;;;;;;;7.48;61.14;100147.33;1794097;78;21064;-58
2021/10/24 01:12:44;;;;;;;2.23;1.00;;;;;;;7.49;61.19;100149.06;1798369;78;21041;-58
2021/10/24 01:15:11;;;;;;;4.37;0.93;;;;;;;7.49;61.17;100150.39;1793738;78;21104;-58
2021/10/24 01:17:38;;;;;;;4.27;1.17;;;;;;;7.48;61.21;100155.83;1794329;77;20933;-58
2021/10/24 01:20:06;;;;;;;4.17;1.40;;;;;;;7.45;61.28;100156.78;1797140;78;20867;-58
2021/10/24 01:22:39;;;;;;;4.03;0.90;;;;;;;7.42;61.42;100161.34;1793835;78;21342;-58
2021/10/24 01:25:07;;;;;;;3.07;1.10;;;;;;;7.39;61.55;100165.47;1795000;78;21053;-58
2021/10/24 01:27:37;;;;;;;4.80;1.30;;;;;;;7.37;61.70;100164.16;1795167;78;21548;-58
2021/10/24 01:30:06;;;;;;;4.97;1.07;;;;;;;7.35;61.79;100166.00;1772113;78;20898;-57
2021/10/24 01:32:33;;;;;;;3.03;0.90;;;;;;;7.35;61.90;100162.44;1822490;76;21499;-59
2021/10/24 01:35:00;;;;;;;3.37;1.07;;;;;;;7.35;61.97;100169.14;1811817;77;21073;-58
2021/10/24 01:37:39;;;;;;;3.97;1.30;;;;;;;7.32;62.09;100167.41;1831912;76;21060;-58
2021/10/24 01:40:09;;;;;;;3.23;1.10;;;;;;;7.30;62.16;100165.27;1827411;76;21646;-59
2021/10/24 01:42:47;;;;;;;2.40;1.00;;;;;;;7.28;62.24;100164.88;1836538;76;21349;-58
2021/10/24 01:45:14;;;;;;;5.47;1.10;;;;;;;7.25;62.37;100173.87;1832104;75;21534;-57
2021/10/24 01:47:41;;;;;;;6.80;1.00;;;;;;;7.25;62.52;100180.56;1832182;76;20977;-58
2021/10/24 01:50:08;;;;;;;4.10;1.93;;;;;;;7.27;62.59;100180.53;1835622;76;21369;-58
2021/10/24 01:52:41;;;;;;;6.27;0.90;;;;;;;7.30;62.67;100183.13;1839632;76;21731;-58
2021/10/24 01:55:10;;;;;;;6.40;0.90;;;;;;;7.33;62.74;100182.56;1829934;76;20918;-54
2021/10/24 01:57:44;;;;;;;4.50;1.10;;;;;;;7.35;62.78;100178.05;1832739;76;20930;-58
2021/10/24 02:00:13;;;;;;;;;;;;;;;7.37;62.78;100180.23;1807884;76;20922;-56
2021/10/24 02:02:48;;;;;;;3.20;1.00;;;;;;;7.40;62.83;100178.78;1834779;76;20111;-56
2021/10/24 02:05:16;;;;;;;4.43;1.07;;;;;;;7.42;62.75;100179.63;1813190;76;21474;-56
2021/10/24 02:07:43;;;;;;;4.53;1.07;;;;;;;7.43;62.74;100185.41;1830553;76;21315;-56
2021/10/24 02:10:14;;;;;;;6.13;1.20;;;;;;;7.43;62.66;100192.10;1833955;76;21064;-56
2021/10/24 02:12:41;;;;;;;4.07;1.00;;;;;;;7.43;62.63;100196.58;1833561;76;22186;-56
2021/10/24 02:15:10;;;;;;;3.93;1.20;;;;;;;7.41;62.65;100185.91;1831379;76;21068;-57
2021/10/24 02:17:38;;;;;;;3.60;0.90;;;;;;;7.38;62.66;100194.05;1829262;76;21066;-56
2021/10/24 02:20:06;;;;;;;2.93;0.90;;;;;;;7.33;62.72;100193.73;1810536;76;21084;-57
2021/10/24 02:22:35;;;;;;;4.33;1.07;;;;;;;7.30;62.86;100197.86;1829972;76;20921;-57
2021/10/24 02:25:05;;;;;;;6.10;1.20;;;;;;;7.23;62.95;100207.38;1829928;76;21067;-56
2021/10/24 02:27:32;;;;;;;3.43;1.30;;;;;;;7.21;63.04;100211.04;1831885;76;21472;-56
2021/10/24 02:29:59;;;;;;;1.67;0.80;;;;;;;7.17;63.14;100203.53;1831814;76;21092;-56
2021/10/24 02:32:25;;;;;;;3.93;1.10;;;;;;;7.15;63.22;100213.86;1804204;76;21519;-56
2021/10/24 02:35:03;;;;;;;4.53;0.90;;;;;;;7.12;63.36;100207.27;1836963;76;20878;-55
2021/10/24 02:37:31;;;;;;;3.57;0.80;;;;;;;7.12;63.46;100220.66;1836772;76;21410;-57
2021/10/24 02:39:59;;;;;;;3.67;0.80;;;;;;;7.14;63.55;100218.36;1750239;79;21373;-56
2021/10/24 02:42:27;;;;;;;5.30;0.90;;;;;;;7.17;63.64;100223.62;1771952;79;21293;-56
2021/10/24 02:44:53;;;;;;;5.17;1.10;;;;;;;7.21;63.65;100223.97;1798728;78;20993;-56
2021/10/24 02:47:20;;;;;;;4.30;0.90;;;;;;;7.25;63.61;100226.54;1798251;78;21052;-55
2021/10/24 02:49:48;;;;;;;2.37;0.90;;;;;;;7.27;63.55;100229.61;1794164;78;21531;-56
2021/10/24 02:52:14;;;;;;;1.80;0.90;;;;;;;7.29;63.54;100237.14;1790663;78;21527;-57
2021/10/24 02:54:40;;;;;;;3.77;1.00;;;;;;;7.27;63.50;100229.61;1780188;78;21080;-58
2021/10/24 02:57:08;;;;;;;2.30;0.90;;;;;;;7.23;63.54;100231.47;1793469;78;21004;-56
2021/10/24 02:59:34;;;;;;;1.80;0.80;;;;;;;7.21;63.58;100232.45;1793135;78;21428;-57
2021/10/24 03:02:01;;;;;;;1.87;0.97;;;;;;;7.20;63.61;100235.59;1792419;78;21408;-57
2021/10/24 03:04:28;;;;;;;3.70;1.10;;;;;;;7.19;63.62;100232.50;1791212;78;20982;-56
2021/10/24 03:06:54;;;;;;;3.50;1.00;;;;;;;7.15;63.69;100225.45;1789506;78;21719;-58
2021/10/24 03:09:21;;;;;;;3.47;0.90;;;;;;;7.08;63.74;100227.88;1792446;78;21461;-56
2021/10/24 03:11:48;;;;;;;4.13;1.00;;;;;;;7.04;63.87;100234.70;1791289;78;21143;-57
2021/10/24 03:14:16;;;;;;;2.67;0.80;;;;;;;6.97;63.98;100232.66;1792387;78;21069;-56
2021/10/24 03:16:43;;;;;;;3.83;0.70;;;;;;;6.96;64.13;100230.02;1793952;78;21108;-56
2021/10/24 03:19:09;;;;;;;3.10;0.77;;;;;;;6.98;64.23;100232.16;1792794;78;21102;-57
2021/10/24 03:21:38;;;;;;;3.23;1.00;;;;;;;7.01;64.33;100226.74;1792888;78;21424;-56
2021/10/24 03:24:06;;;;;;;2.67;0.80;;;;;;;7.03;64.30;100230.27;1800017;78;20882;-57
2021/10/24 03:26:34;;;;;;;5.30;1.23;;;;;;;7.06;64.32;100237.73;1794379;78;21005;-56
2021/10/24 03:29:01;;;;;;;3.73;0.93;;;;;;;7.11;64.27;100236.30;1800199;78;20998;-56
2021/10/24 03:31:28;;;;;;;3.23;0.97;;;;;;;7.11;64.20;100233.62;1791709;78;21122;-57
2021/10/24 03:33:54;;;;;;;3.40;0.80;;;;;;;7.11;64.18;100234.95;1787979;79;21062;-57
2021/10/24 03:36:20;;;;;;;3.77;1.00;;;;;;;7.10;64.12;100239.89;1786986;78;21083;-57
2021/10/24 03:38:48;;;;;;;3.97;1.53;;;;;;;7.08;64.14;100238.58;1791637;79;21146;-58
2021/10/24 03:41:14;;;;;;;6.30;0.97;;;;;;;7.04;64.18;100243.61;1790347;79;21073;-56
2021/10/24 03:43:41;;;;;;;5.40;1.20;;;;;;;7.01;64.28;100246.81;1792421;79;22173;-57
2021/10/24 03:46:08;;;;;;;4.17;0.90;;;;;;;6.99;64.32;100249.53;1786931;79;21037;-56
2021/10/24 03:48:34;;;;;;;3.53;0.90;;;;;;;6.97;64.38;100253.19;1790098;79;21014;-56
2021/10/24 03:51:01;;;;;;;4.17;0.90;;;;;;;6.92;64.51;100254.63;1790085;78;21057;-55
2021/10/24 03:53:27;;;;;;;3.87;0.90;;;;;;;6.88;64.62;100250.28;1791612;79;22125;-58
2021/10/24 03:55:55;;;;;;;6.00;1.77;;;;;;;6.86;64.70;100254.78;1794958;79;21300;-55
2021/10/24 03:58:22;;;;;;;4.70;0.77;;;;;;;6.84;64.79;100253.94;1761919;79;21687;-56
2021/10/24 04:00:49;;;;;;;3.67;0.73;;;;;;;6.86;64.89;100261.94;1760707;79;21085;-57
2021/10/24 04:03:15;;;;;;;3.70;0.80;;;;;;;6.90;64.94;100256.45;1790129;78;21031;-56
2021/10/24 04:05:48;;;;;;;5.10;0.90;;;;;;;6.94;64.89;100258.60;1765578;79;21050;-56
2021/10/24 04:08:12;;;;;;;3.10;0.70;;;;;;;6.97;64.92;100262.09;1765301;79;21107;-58
2021/10/24 04:10:38;;;;;;;1.93;0.80;;;;;;;6.99;64.89;100260.23;1755453;78;21047;-57
2021/10/24 04:13:05;;;;;;;3.60;0.90;;;;;;;7.01;64.83;100252.17;1759508;79;21125;-55
2021/10/24 04:15:31;;;;;;;3.00;0.90;;;;;;;7.00;64.80;100261.11;1768195;79;21031;-55
2021/10/24 04:17:58;;;;;;;2.67;0.93;;;;;;;6.99;64.80;100259.35;1762705;79;21067;-57
2021/10/24 04:20:25;;;;;;;7.40;1.43;;;;;;;6.98;64.83;100268.30;1795470;78;21157;-58
2021/10/24 04:22:54;;;;;;;5.27;1.30;;;;;;;6.95;64.84;100270.61;1767121;79;21055;-55
2021/10/24 04:25:20;;;;;;;5.53;1.60;;;;;;;6.94;64.88;100271.98;1792225;79;21405;-57
2021/10/24 04:27:48;;;;;;;2.63;0.90;;;;;;;6.93;64.91;100276.91;1787742;78;21014;-56
2021/10/24 04:30:14;;;;;;;4.10;1.00;;;;;;;6.89;64.95;100276.59;1788393;79;21058;-57
2021/10/24 04:32:43;;;;;;;6.47;1.07;;;;;;;6.84;65.04;100278.02;1793932;78;21346;-56
2021/10/24 04:35:11;;;;;;;5.53;1.10;;;;;;;6.80;65.12;100277.69;1797729;79;20918;-58
2021/10/24 04:37:39;;;;;;;3.57;1.10;;;;;;;6.78;65.23;100282.20;1790648;79;20938;-57
2021/10/24 04:40:06;;;;;;;2.60;0.70;;;;;;;6.78;65.32;100274.17;1793014;79;20871;-58
2021/10/24 04:42:35;;;;;;;2.73;0.80;;;;;;;6.78;65.41;100281.73;1791278;79;20994;-56
2021/10/24 04:45:06;;;;;;;2.67;0.70;;;;;;;6.82;65.47;100278.05;1791399;79;21079;-58
2021/10/24 04:47:34;;;;;;;5.03;1.17;;;;;;;6.87;65.50;100283.31;1792064;79;20859;-56
2021/10/24 04:50:00;;;;;;;3.40;0.83;;;;;;;6.90;65.45;100286.34;1793564;78;20843;-58
2021/10/24 04:52:26;;;;;;;4.80;1.03;;;;;;;6.94;65.39;100292.94;1798338;78;21368;-56
2021/10/24 04:54:52;;;;;;;4.47;0.97;;;;;;;6.95;65.37;100294.70;1781381;78;21543;-57
2021/10/24 04:57:19;;;;;;;3.40;1.00;;;;;;;6.94;65.33;100296.95;1794612;78;21544;-58
2021/10/24 04:59:45;;;;;;;3.40;0.90;;;;;;;6.91;65.36;100301.03;1795843;77;20971;-58
2021/10/24 05:02:12;;;;;;;6.37;1.17;;;;;;;6.86;65.39;100300.28;1796638;78;20980;-56
2021/10/24 05:04:38;;;;;;;4.90;0.90;;;;;;;6.81;65.45;100299.03;1796044;78;20978;-56
2021/10/24 05:07:05;;;;;;;2.83;0.90;;;;;;;6.78;65.54;100305.82;1793735;77;20966;-56
2021/10/24 05:09:32;;;;;;;4.47;1.10;;;;;;;6.75;65.62;100307.22;1795471;78;21390;-56
2021/10/24 05:11:59;;;;;;;4.23;0.90;;;;;;;6.73;65.74;100321.08;1767564;79;21767;-57
2021/10/24 05:14:26;;;;;;;3.13;0.90;;;;;;;6.72;65.82;100317.13;1769428;78;20976;-57
2021/10/24 05:16:53;;;;;;;5.27;1.00;;;;;;;6.73;65.95;100326.44;1790373;79;21494;-56
2021/10/24 05:19:19;;;;;;;3.47;0.80;;;;;;;6.75;65.97;100325.95;1765147;79;21314;-58
2021/10/24 05:21:46;;;;;;;5.07;1.10;;;;;;;6.79;66.07;100326.31;1785882;78;22098;-58
2021/10/24 05:24:13;;;;;;;4.43;1.40;;;;;;;6.84;66.04;100336.89;1791174;79;21296;-58
2021/10/24 05:26:39;;;;;;;4.60;0.90;;;;;;;6.88;65.99;100341.73;1787213;79;21065;-56
2021/10/24 05:29:06;;;;;;;5.17;0.90;;;;;;;6.90;65.94;100339.87;1790074;78;21045;-57
2021/10/24 05:31:32;;;;;;;7.97;1.23;;;;;;;6.92;65.89;100346.95;1790974;79;21037;-58
2021/10/24 05:34:04;;;;;;;1.77;0.83;;;;;;;6.92;65.82;100346.95;1792240;78;21503;-57
2021/10/24 05:36:32;;;;;;;6.90;1.30;;;;;;;6.89;65.82;100352.36;1786489;79;20980;-56
2021/10/24 05:38:59;;;;;;;1.50;0.80;;;;;;;6.86;65.90;100359.15;1789412;79;21033;-57
2021/10/24 05:41:28;;;;;;;3.80;1.00;;;;;;;6.83;65.92;100359.21;1761703;79;21172;-57
2021/10/24 05:43:55;;;;;;;4.50;1.00;;;;;;;6.82;66.00;100363.68;1764168;79;21064;-56
2021/10/24 05:46:22;;;;;;;1.97;0.70;;;;;;;6.86;66.06;100369.85;1791934;79;21328;-57
2021/10/24 05:48:49;;;;;;;2.77;0.90;;;;;;;6.90;66.03;100367.97;1789057;79;21003;-57
2021/10/24 05:51:17;;;;;;;3.47;0.80;;;;;;;6.95;65.99;100380.34;1791210;79;20988;-56
2021/10/24 05:53:43;;;;;;;1.50;0.77;;;;;;;6.99;65.92;100379.34;1761563;79;21444;-57
2021/10/24 05:56:15;;;;;;;1.27;0.73;;;;;;;7.03;65.85;100382.84;1789915;79;21060;-57
2021/10/24 05:58:43;;;;;;;3.70;0.73;;;;;;;7.06;65.82;100386.30;1788809;79;22600;-56
2021/10/24 06:01:11;;;;;;;5.83;0.80;;;;;;;7.08;65.73;100384.93;1728619;79;21017;-56
2021/10/24 06:03:57;;;;;;;3.20;0.87;;;;;;;7.09;65.71;100388.03;1786830;79;20998;-55
2021/10/24 06:06:31;;;;;;;1.50;0.80;;;;;;;7.09;65.69;100390.71;1752518;78;21031;-59
2021/10/24 06:08:59;;;;;;;2.70;0.77;;;;;;;7.08;65.59;100399.20;1759143;79;21094;-57
2021/10/24 06:11:34;;;;;;;2.40;1.00;;;;;;;7.06;65.57;100404.19;1761472;78;21082;-56
2021/10/24 06:13:54;;;;;;;1.87;0.70;;;;;;;7.03;65.60;100402.45;1786559;78;21109;-57
2021/10/24 06:16:20;;;;;;;1.60;0.60;;;;;;;7.05;65.63;100412.67;1793898;78;21040;-57
2021/10/24 06:18:47;;;;;;;2.27;0.60;;;;;;;7.07;65.69;100407.27;1791621;78;20971;-58
2021/10/24 06:21:13;;;;;;;2.20;0.70;;;;;;;7.06;65.73;100409.55;1792461;78;21316;-57
2021/10/24 06:23:39;;;;;;;2.40;0.80;;;;;;;7.09;66.00;100415.69;1793936;78;22263;-59
2021/10/24 06:26:07;;;;;;;5.20;0.57;;;;;;;7.09;66.06;100415.69;1789700;78;21063;-58
2021/10/24 06:28:34;;;;;;;5.00;0.60;;;;;;;7.12;66.24;100430.80;1786140;77;21030;-58
2021/10/24 06:31:02;;;;;;;1.17;0.60;;;;;;;7.12;66.28;100422.77;1790140;78;21039;-58
2021/10/24 06:33:45;;;;;;;2.67;0.60;;;;;;;7.11;66.33;100431.72;1707397;82;21725;-57
2021/10/24 06:36:13;;;;;;;1.57;0.43;;;;;;;7.09;66.18;100434.88;1740896;79;21150;-58
2021/10/24 06:38:40;;;;;;;4.97;0.47;;;;;;;7.11;66.10;100434.40;1787860;79;21006;-58
2021/10/24 06:41:12;;;;;;;1.03;0.50;;;;;;;7.14;66.09;100424.97;1785854;79;21685;-58
2021/10/24 06:43:40;;;;;;;0.80;0.50;;;;;;;7.21;66.14;100438.62;1783157;79;21033;-59
2021/10/24 06:46:14;;;;;;;3.02;0.60;;;;;;;7.28;66.00;100438.90;1749704;79;21104;-60
2021/10/24 06:48:58;;;;;;;3.27;0.60;;;;;;;7.32;65.80;100443.24;1785717;79;22652;-58
2021/10/24 06:51:33;;;;;;;1.85;0.53;;;;;;;7.34;65.66;100437.86;1780840;79;21053;-58
2021/10/24 06:54:17;;;;;;;4.08;0.50;;;;;;;7.33;65.58;100448.14;1789760;79;21402;-58
2021/10/24 06:56:48;;;;;;;1.63;0.60;;;;;;;7.30;65.59;100452.25;1785971;79;21018;-58
2021/10/24 06:59:20;;;;;;;3.20;0.53;;;;;;;7.29;65.52;100458.52;1786980;79;21465;-59
2021/10/24 07:01:57;;;;;;;1.43;0.57;;;;;;;7.27;65.53;100463.91;1788636;79;21080;-58
2021/10/24 07:04:43;;;;;;;2.47;0.47;;;;;;;7.29;65.47;100466.10;1783455;79;21041;-59
2021/10/24 07:07:20;;;;;;;1.37;0.50;;;;;;;7.33;65.47;100457.06;1783756;79;21068;-57
2021/10/24 07:09:47;;;;;;;1.13;0.40;;;;;;;7.40;65.47;100453.80;1784086;79;21712;-59
2021/10/24 07:12:16;;;;;;;2.30;0.40;;;;;;;7.48;65.12;100459.85;1784751;79;21002;-58
2021/10/24 07:14:44;;;;;;;1.60;0.40;;;;;;;7.53;64.67;100459.27;1792093;79;20886;-58
2021/10/24 07:17:12;;;;;;;1.00;0.40;;;;;;;7.54;64.56;100467.27;1786622;79;21097;-58
2021/10/24 07:19:39;;;;;;;1.60;0.40;;;;;;;7.56;64.44;100469.46;1787784;79;21105;-59
2021/10/24 07:22:07;;;;;;;1.50;0.43;;;;;;;7.58;64.24;100465.38;1785696;79;21136;-57
2021/10/24 07:24:38;;;;;;;0.67;0.40;;;;;;;7.60;64.14;100472.47;1748829;78;21901;-58
2021/10/24 07:27:04;;;;;;;0.70;0.47;;;;;;;7.60;64.03;100476.48;1791191;79;21032;-59
2021/10/24 07:29:31;;;;;;;1.37;0.40;;;;;;;7.62;63.84;100469.76;1783858;79;21472;-58
2021/10/24 07:31:58;;;;;;;1.10;0.40;;;;;;;7.62;63.74;100472.44;1787604;79;21476;-57
2021/10/24 07:36:47;;;;;;;0.77;0.40;;;;;;;7.73;63.33;100482.44;1863757;75;22499;-57
2021/10/24 07:39:13;;;;;;;0.60;0.30;;;;;;;7.71;63.19;100482.93;1839722;77;20898;-57
2021/10/24 07:41:40;;;;;;;1.20;0.40;;;;;;;7.77;62.82;100481.88;1843463;77;21355;-58
2021/10/24 07:44:07;;;;;;;0.70;0.40;;;;;;;7.79;62.68;100487.63;1837509;77;21404;-57
2021/10/24 07:46:36;;;;;;;0.87;0.40;;;;;;;7.83;62.69;100495.12;1839463;77;20898;-59
2021/10/24 07:49:02;;;;;;;1.23;0.30;;;;;;;7.87;62.41;100486.98;1840301;77;20886;-58
2021/10/24 07:51:30;;;;;;;1.40;0.40;;;;;;;7.90;62.23;100490.94;1836131;76;21293;-58
2021/10/24 07:53:56;;;;;;;1.40;0.40;;;;;;;7.92;61.95;100485.05;1837149;77;21155;-57
2021/10/24 07:56:23;;;;;;;1.67;0.40;;;;;;;7.94;61.88;100489.03;1838528;77;20940;-57
2021/10/24 07:58:55;;;;;;;0.70;0.50;;;;;;;7.95;61.79;100483.64;1841770;77;20867;-58
2021/10/24 08:01:23;;;;;;;2.20;0.30;;;;;;;7.97;61.65;100489.85;1834438;77;21495;-58
2021/10/24 08:03:51;;;;;;;1.77;0.40;;;;;;;8.01;61.16;100494.66;1845345;77;20866;-57
2021/10/24 08:06:21;;;;;;;3.80;0.30;;;;;;;8.00;60.95;100492.89;1839056;77;21043;-58
2021/10/24 08:08:49;;;;;;;1.27;0.30;;;;;;;8.00;60.92;100496.91;1843977;77;20890;-57
2021/10/24 08:11:15;;;;;;;1.90;0.20;;;;;;;8.02;60.69;100488.37;1814836;77;20924;-58
2021/10/24 08:13:42;;;;;;;0.43;0.27;;;;;;;8.02;60.53;100486.16;1840326;77;20915;-57
2021/10/24 08:16:10;;;;;;;0.90;0.20;;;;;;;8.03;60.36;100503.55;1837353;77;20918;-58
2021/10/24 08:18:37;;;;;;;0.60;0.23;;;;;;;8.02;60.01;100499.55;1774550;78;21083;-57
2021/10/24 08:21:05;;;;;;;0.70;0.20;;;;;;;8.00;59.71;100500.93;1772262;79;20907;-57
2021/10/24 08:23:33;;;;;;;0.60;0.20;;;;;;;7.98;59.66;100513.52;1750009;79;20957;-58
2021/10/24 08:25:59;;;;;;;1.00;0.20;;;;;;;7.99;59.75;100513.45;1774755;79;21037;-57
2021/10/24 08:28:26;;;;;;;2.63;0.30;;;;;;;8.04;59.67;100520.05;1778149;79;21123;-57
2021/10/24 08:31:02;;;;;;;0.57;0.20;;;;;;;8.07;59.50;100514.63;1773917;79;21814;-56
2021/10/24 08:33:38;;;;;;;0.60;0.30;;;;;;;8.07;59.28;100531.17;1737858;80;21155;-57
2021/10/24 08:36:04;;;;;;;0.47;0.20;;;;;;;8.03;59.15;100526.33;1774886;79;21123;-58
2021/10/24 08:38:31;;;;;;;2.00;0.20;;;;;;;8.03;59.21;100526.33;1771211;78;20983;-57
2021/10/24 08:40:58;;;;;;;2.63;0.20;;;;;;;8.01;59.11;100529.51;1736940;80;21116;-58
2021/10/24 08:43:29;;;;;;;0.87;0.20;;;;;;;7.99;59.05;100532.22;1744771;80;21157;-58
2021/10/24 08:45:54;;;;;;;0.90;0.20;;;;;;;8.01;58.98;100532.19;1770345;78;21771;-57
2021/10/24 08:48:21;;;;;;;1.83;0.20;;;;;;;8.01;58.83;100529.97;1767783;79;21463;-56
2021/10/24 08:50:49;;;;;;;0.67;0.23;;;;;;;8.04;58.89;100533.46;1768281;79;21519;-57
2021/10/24 08:53:26;;;;;;;1.63;0.23;;;;;;;8.10;58.86;100539.12;1739519;80;20966;-59
2021/10/24 08:55:53;;;;;;;0.60;0.20;;;;;;;8.14;58.59;100539.02;1768319;79;21113;-58
2021/10/24 08:58:20;;;;;;;0.30;0.20;;;;;;;8.18;58.39;100530.41;1772553;79;20977;-60
2021/10/24 09:00:48;;;;;;;0.20;0.20;;;;;;;8.22;58.23;100536.13;1743297;81;21052;-58
2021/10/24 09:03:15;;;;;;;0.43;0.20;;;;;;;8.25;57.46;100530.70;1750554;80;21128;-57
2021/10/24 09:05:45;;;;;;;2.80;0.20;;;;;;;8.26;57.06;100531.09;1753749;80;21744;-58
2021/10/24 09:08:23;;;;;;;2.20;0.20;;;;;;;8.30;57.08;100534.12;1752570;80;22482;-58
2021/10/24 09:10:55;;;;;;;0.40;0.20;;;;;;;8.35;56.84;100537.12;1746775;80;21117;-59
2021/10/24 09:13:28;;;;;;;0.30;0.10;;;;;;;8.44;56.61;100541.83;1753200;80;21367;-59
2021/10/24 09:16:09;;;;;;;0.20;0.10;;;;;;;8.49;56.16;100536.77;1733782;81;21657;-57
2021/10/24 09:18:39;;;;;;;0.50;0.17;;;;;;;8.52;55.79;100537.12;1747230;80;20977;-57
2021/10/24 09:21:22;;;;;;;0.87;0.20;;;;;;;8.51;55.48;100539.39;1746207;80;22384;-57
2021/10/24 09:23:53;;;;;;;0.50;0.10;;;;;;;8.51;55.18;100539.39;1775327;79;20954;-58
2021/10/24 09:26:29;;;;;;;0.33;0.10;;;;;;;8.46;54.37;100543.55;1735236;81;21032;-58
2021/10/24 09:29:08;;;;;;;1.70;0.10;;;;;;;8.42;54.21;100550.41;1743102;80;21039;-59
2021/10/24 09:31:37;;;;;;;0.40;0.20;;;;;;;8.38;54.13;100542.00;1747155;80;21076;-60
2021/10/24 09:34:20;;;;;;;0.30;0.10;;;;;;;8.32;53.89;100546.63;1756131;79;22364;-60
2021/10/24 09:36:58;;;;;;;1.77;0.20;;;;;;;8.25;54.20;100567.75;1735764;80;21244;-59
2021/10/24 09:39:38;;;;;;;1.07;0.40;;;;;;;8.10;57.94;100579.34;1732818;81;21520;-57
2021/10/24 09:42:21;;;;;;;1.00;0.10;;;;;;;7.75;60.58;100589.57;1712004;81;21514;-58
2021/10/24 09:45:14;;;;;;;0.40;0.20;;;;;;;7.51;61.95;100603.08;1726518;81;21107;-58
2021/10/24 09:47:46;;;;;;;0.10;0.10;;;;;;;7.31;62.96;100596.84;1757449;80;21029;-58
2021/10/24 09:50:37;;;;;;;1.97;0.10;;;;;;;7.17;64.33;100605.14;1746079;81;21279;-57
2021/10/24 09:53:19;;;;;;;0.70;0.10;;;;;;;7.07;64.66;100602.23;1739291;81;21088;-58
2021/10/24 09:55:49;;;;;;;0.30;0.10;;;;;;;7.03;64.94;100605.02;1743334;81;21586;-58
2021/10/24 09:58:15;;;;;;;0.57;0.20;;;;;;;7.01;65.12;100600.14;1728868;81;21108;-56
2021/10/24 10:00:43;;;;;;;0.80;0.30;;;;;;;7.00;65.17;100599.71;1740259;81;21144;-59
2021/10/24 10:03:09;;;;;;;0.77;0.20;;;;;;;6.99;65.15;100599.28;1759328;80;21136;-56
2021/10/24 10:05:37;;;;;;;0.90;0.40;;;;;;;6.99;64.83;100596.60;1754945;80;21104;-57
2021/10/24 10:08:09;;;;;;;2.00;0.40;;;;;;;6.99;64.71;100600.62;1736708;81;21108;-57
2021/10/24 10:10:39;;;;;;;1.53;0.40;;;;;;;7.03;64.76;100597.87;1740196;81;21072;-56
2021/10/24 10:13:10;;;;;;;0.67;0.40;;;;;;;7.10;64.64;100588.79;1739993;81;21097;-58
2021/10/24 10:15:43;;;;;;;1.47;0.47;;;;;;;7.19;64.26;100593.95;1739431;81;21107;-58
2021/10/24 10:18:10;;;;;;;1.77;0.30;;;;;;;7.26;62.96;100589.80;1741898;81;21268;-56
2021/10/24 10:20:52;;;;;;;1.83;0.20;;;;;;;7.26;62.33;100585.33;1738302;81;21507;-59
2021/10/24 10:23:21;;;;;;;0.30;0.20;;;;;;;7.32;61.47;100597.69;1742046;81;20980;-57
2021/10/24 10:25:48;;;;;;;0.70;0.30;;;;;;;7.32;60.31;100594.55;1742167;80;20953;-59
2021/10/24 10:28:17;;;;;;;1.53;0.20;;;;;;;7.35;59.63;100593.63;1745880;81;20942;-59
2021/10/24 10:30:45;;;;;;;2.13;0.10;;;;;;;7.39;58.52;100603.37;1741875;81;21800;-57
2021/10/24 10:33:34;;;;;;;0.70;0.20;;;;;;;7.41;57.70;100604.19;1743015;80;20929;-58
2021/10/24 10:36:03;;;;;;;0.43;0.20;;;;;;;7.41;56.87;100599.72;1737982;80;21040;-58
2021/10/24 10:38:42;;;;;;;0.57;0.20;;;;;;;7.38;56.15;100603.82;1741130;81;22313;-59
2021/10/24 10:41:11;;;;;;;0.20;0.10;;;;;;;7.39;55.85;100601.57;1729287;80;21401;-60
2021/10/24 10:43:38;;;;;;;0.87;0.30;;;;;;;7.39;55.50;100617.64;1729305;80;20988;-58
2021/10/24 10:46:06;;;;;;;0.70;0.20;;;;;;;7.38;55.45;100605.62;1747536;80;20956;-59
2021/10/24 10:48:44;;;;;;;0.50;0.20;;;;;;;7.38;55.49;100605.16;1728406;80;20887;-57
2021/10/24 10:51:21;;;;;;;0.30;0.20;;;;;;;7.39;55.03;100600.69;1740715;80;21364;-56
2021/10/24 10:54:03;;;;;;;0.50;0.20;;;;;;;7.40;54.84;100607.81;1740516;81;20944;-59
2021/10/24 10:56:53;;;;;;;0.50;0.20;;;;;;;7.40;54.18;100597.95;1733702;80;20903;-59
2021/10/24 10:59:35;;;;;;;0.40;0.10;;;;;;;7.42;54.12;100594.78;1693635;82;21473;-58
2021/10/24 11:02:22;;;;;;;0.20;0.10;;;;;;;7.45;53.72;100609.47;1670266;81;20997;-58
2021/10/24 11:04:54;;;;;;;0.57;0.20;;;;;;;7.49;53.58;100603.11;1722394;80;21865;-57
2021/10/24 11:07:42;;;;;;;2.00;0.20;;;;;;;7.52;53.48;100597.69;1742166;81;20893;-57
2021/10/24 11:10:15;;;;;;;0.77;0.20;;;;;;;7.57;52.89;100601.62;1739911;80;20969;-57
2021/10/24 11:12:44;;;;;;;;;;;;;;;7.63;52.40;100599.25;1742391;81;21383;-57
2021/10/24 11:15:27;;;;;;;0.37;0.10;;;;;;;7.68;52.32;100601.36;1743116;81;20124;-57
2021/10/24 11:17:53;;;;;;;1.03;0.10;;;;;;;7.75;52.07;100600.30;1726691;80;22529;-58
2021/10/24 11:20:27;;;;;;;0.30;0.10;;;;;;;7.81;51.71;100601.52;1734804;80;20902;-57
2021/10/24 11:23:01;;;;;;;0.23;0.10;;;;;;;7.87;51.43;100609.40;1732663;80;22085;-59
2021/10/24 11:25:31;;;;;;;0.23;0.10;;;;;;;7.96;51.04;100610.52;1729381;80;20945;-56
2021/10/24 11:27:58;;;;;;;0.20;0.10;;;;;;;7.99;51.16;100609.97;1730405;80;21167;-57
2021/10/24 11:30:25;;;;;;;0.10;0.10;;;;;;;8.05;51.04;100612.98;1741975;80;21103;-58
2021/10/24 11:32:53;;;;;;;0.23;0.10;;;;;;;8.10;50.94;100611.52;1718800;80;21113;-55
2021/10/24 11:35:21;;;;;;;0.20;0.07;;;;;;;8.12;50.94;100618.61;1741054;81;21071;-55
2021/10/24 11:37:59;;;;;;;0.73;0.10;;;;;;;8.13;50.95;100617.70;1750875;79;21531;-56
2021/10/24 11:40:31;;;;;;;0.23;0.20;;;;;;;8.12;50.93;100625.31;1763901;79;21049;-58
2021/10/24 11:43:17;;;;;;;0.40;0.20;;;;;;;8.10;51.03;100629.83;1754007;79;21138;-57
2021/10/24 11:45:50;;;;;;;0.30;0.20;;;;;;;8.08;51.26;100634.83;1771828;79;21517;-57
2021/10/24 11:48:20;;;;;;;0.40;0.20;;;;;;;8.02;51.43;100636.30;1738995;80;21384;-56